Piseco, New York
Current Conditions -  °F | °C
As of 3:15 PM on Wednesday 26 Nov 2014 (Local Time) from KNY0 Reporting Station
Overcast Overcast  
Wind Chill: 21°   Ceiling: 400
Heat Index: 29°   Visibility: 0.5mi
Dew Point: 28°   Wind: 9mph
Humidity: 95%   Direction: 30°NNE
Pressure: 29.99"   Gusts: NA
Location:  43.45°N, 74.52°W
Report Text: KNY0 262015Z AUTO 03008KT 1/2SM OVC004 M02/M02 A2999 RMK AO2 T10161023
Loading
Personal Weather Stations






























Interactive Weather Map New forecast layout! Learn more

10-Day Weather Forecast

Advertisements
Track Severe Weather on mobile